Port Heiden Airport Port Heiden US
ICAO: PAPH
IATA:
Category: Medium
Scheduled Services:

Elevation: 95 ft
TransAlt. 18000 ft.

Airport Communications:
AWOS 3:135.4
ANCHORAGE CNTR:132.9
CTAF:122.8
KENAI RDO:122

PAPH Zoom In..

Runways:

(A) RW 05 length 5000 ft width 100 ft
---- / hdg 54

(B) RW 13 length 4000 ft width 100 ft
---- / hdg 131

(C) RW 23 length 5000 ft width 100 ft
---- / hdg 234

(D) RW 31 length 4000 ft width 100 ft
---- / hdg 311

Location; PAPH
Day. 11 / Time. 11.56 Zulu
* Altimeter: 29.93
* Temperature: 07° c. 44.6°f.
* Wind from: 330° Speed 04 kn.
Dewpoint: 07° c.
Visibility: 3 Statute Miles.
Clouds: Clear (automated report).
Conditions: Mist.

PAPH 111156Z AUTO 33004KT 3SM BR CLR 07/07 A2993 RMK AO2 SLP137 70005 T00720072 10122 20072 58009

Going to: --> -->


Wind From 330°
Speed 04 kn.

 
 
jpsmedia worldairports.se 2020   terms of use